createdAt,value
2019-05-19T00:02:13.853Z,3.12
2019-05-19T00:04:42.016Z,2.70
2019-05-19T00:07:10.202Z,2.37
2019-05-19T00:09:38.346Z,2.50
2019-05-19T00:12:06.478Z,2.52
2019-05-19T00:14:34.678Z,2.00
2019-05-19T00:17:02.818Z,2.00
2019-05-19T00:19:30.995Z,2.50
2019-05-19T00:21:59.165Z,2.20
2019-05-19T00:24:27.309Z,2.10
2019-05-19T00:26:55.620Z,2.15
2019-05-19T00:29:23.775Z,2.02
2019-05-19T00:31:51.959Z,2.27
2019-05-19T00:34:20.095Z,2.08
2019-05-19T00:36:48.223Z,2.10
2019-05-19T00:39:16.383Z,2.25
2019-05-19T00:41:44.573Z,2.90
2019-05-19T00:44:12.761Z,2.70
2019-05-19T00:46:41.054Z,2.65
2019-05-19T00:49:09.273Z,3.62
2019-05-19T00:51:37.913Z,3.37
2019-05-19T00:54:06.063Z,2.87
2019-05-19T00:56:34.795Z,2.75
2019-05-19T00:59:05.059Z,2.55
2019-05-19T01:01:33.243Z,3.08
2019-05-19T01:04:01.403Z,2.92
2019-05-19T01:06:29.595Z,2.55
2019-05-19T01:08:57.779Z,2.50
2019-05-19T01:11:25.940Z,2.40
2019-05-19T01:13:54.089Z,2.47
2019-05-19T01:16:22.265Z,2.22
2019-05-19T01:18:50.410Z,2.12
2019-05-19T01:21:18.763Z,2.02
2019-05-19T01:23:46.916Z,2.52
2019-05-19T01:26:15.126Z,2.30
2019-05-19T01:28:43.285Z,1.77
2019-05-19T01:31:11.459Z,2.58
2019-05-19T01:33:39.725Z,2.72
2019-05-19T01:36:07.891Z,2.35
2019-05-19T01:38:36.055Z,2.95
2019-05-19T01:41:04.254Z,2.95
2019-05-19T01:43:32.459Z,2.77
2019-05-19T01:46:00.715Z,2.52
2019-05-19T01:48:28.863Z,2.90
2019-05-19T01:50:56.987Z,2.72
2019-05-19T01:53:25.139Z,2.90
2019-05-19T01:55:53.295Z,2.92
2019-05-19T01:58:21.417Z,3.70
2019-05-19T02:00:49.536Z,3.72
2019-05-19T02:03:17.748Z,3.42
2019-05-19T02:05:45.897Z,3.27
2019-05-19T02:08:14.050Z,3.72
2019-05-19T02:10:42.150Z,2.58
2019-05-19T02:13:10.263Z,3.30
2019-05-19T02:15:38.351Z,2.65
2019-05-19T02:18:06.506Z,2.72
2019-05-19T02:20:34.701Z,3.45
2019-05-19T02:23:02.858Z,3.40
2019-05-19T02:25:30.987Z,2.90
2019-05-19T02:27:59.146Z,2.67
2019-05-19T02:30:27.280Z,2.87
2019-05-19T02:32:56.832Z,2.92
2019-05-19T02:35:24.952Z,2.83
2019-05-19T02:37:53.058Z,2.60
2019-05-19T02:40:21.189Z,2.37
2019-05-19T02:42:51.206Z,2.40
2019-05-19T02:45:19.514Z,2.90
2019-05-19T02:47:49.791Z,2.10
2019-05-19T02:50:18.021Z,2.83
2019-05-19T02:52:49.128Z,3.00
2019-05-19T02:55:19.416Z,2.70
2019-05-19T02:57:48.889Z,2.72
2019-05-19T03:00:17.124Z,2.63
2019-05-19T03:02:45.254Z,2.65
2019-05-19T03:05:13.606Z,2.98
2019-05-19T03:07:41.747Z,2.58
2019-05-19T03:10:10.004Z,2.83
2019-05-19T03:12:38.160Z,2.77
2019-05-19T03:15:06.475Z,2.70
2019-05-19T03:17:35.352Z,2.80
2019-05-19T03:20:03.461Z,2.87
2019-05-19T03:22:31.635Z,2.30
2019-05-19T03:24:59.732Z,2.50
2019-05-19T03:27:27.828Z,2.40
2019-05-19T03:29:58.415Z,2.52
2019-05-19T03:32:32.251Z,2.90
2019-05-19T03:35:00.439Z,2.30
2019-05-19T03:37:28.604Z,2.70
2019-05-19T03:39:56.738Z,2.40
2019-05-19T03:42:24.859Z,2.52
2019-05-19T03:44:53.009Z,2.67
2019-05-19T03:47:21.188Z,2.75
2019-05-19T03:49:49.309Z,2.30
2019-05-19T03:52:17.410Z,2.65
2019-05-19T03:54:45.491Z,2.70
2019-05-19T03:57:13.667Z,3.20
2019-05-19T03:59:41.824Z,3.67
2019-05-19T04:02:09.967Z,3.22
2019-05-19T04:04:38.111Z,3.00
2019-05-19T04:07:06.249Z,3.33
2019-05-19T04:09:34.356Z,2.90
2019-05-19T04:12:02.547Z,3.50
2019-05-19T04:14:30.786Z,3.80
2019-05-19T04:16:58.900Z,3.67
2019-05-19T04:19:27.012Z,3.70
2019-05-19T04:21:55.206Z,3.98
2019-05-19T04:24:23.353Z,4.10
2019-05-19T04:26:51.543Z,3.80
2019-05-19T04:29:19.729Z,3.77
2019-05-19T04:31:47.820Z,3.42
2019-05-19T04:34:15.977Z,4.37
2019-05-19T04:36:44.139Z,4.50
2019-05-19T04:39:12.240Z,5.08
2019-05-19T04:41:40.561Z,4.45
2019-05-19T04:44:08.655Z,4.28
2019-05-19T04:46:36.783Z,4.00
2019-05-19T04:49:04.938Z,4.70
2019-05-19T04:51:33.117Z,4.70
2019-05-19T04:54:01.264Z,5.33
2019-05-19T04:56:29.388Z,5.25
2019-05-19T04:58:57.477Z,4.55
2019-05-19T05:01:25.603Z,4.75
2019-05-19T05:03:53.876Z,4.87
2019-05-19T05:06:21.989Z,4.70
2019-05-19T05:08:50.109Z,5.55
2019-05-19T05:11:18.240Z,5.05
2019-05-19T05:13:46.379Z,5.05
2019-05-19T05:16:14.518Z,5.72
2019-05-19T05:18:42.678Z,5.70
2019-05-19T05:21:10.773Z,5.62
2019-05-19T05:23:39.011Z,5.78
2019-05-19T05:26:07.119Z,5.17
2019-05-19T05:28:35.250Z,6.45
2019-05-19T05:31:03.383Z,6.40
2019-05-19T05:33:31.502Z,6.80
2019-05-19T05:35:59.669Z,6.00
2019-05-19T05:38:27.788Z,6.22
2019-05-19T05:40:56.005Z,5.65
2019-05-19T05:43:24.121Z,6.35
2019-05-19T05:45:52.273Z,6.22
2019-05-19T05:48:20.411Z,6.62
2019-05-19T05:50:48.515Z,6.10
2019-05-19T05:53:16.686Z,6.03
2019-05-19T05:55:44.899Z,5.30
2019-05-19T05:58:13.101Z,5.47
2019-05-19T06:00:41.213Z,5.45
2019-05-19T06:03:09.343Z,5.08
2019-05-19T06:05:37.425Z,5.40
2019-05-19T06:08:05.564Z,4.97
2019-05-19T06:10:33.750Z,5.28
2019-05-19T06:13:01.926Z,5.60
2019-05-19T06:15:30.162Z,5.37
2019-05-19T06:18:01.278Z,5.83
2019-05-19T06:20:29.465Z,5.17
2019-05-19T06:22:57.990Z,5.15
2019-05-19T06:25:26.501Z,5.12
2019-05-19T06:27:54.747Z,4.90
2019-05-19T06:30:22.965Z,4.90
2019-05-19T06:32:53.006Z,4.55
2019-05-19T06:35:21.215Z,5.10
2019-05-19T06:37:49.374Z,4.72
2019-05-19T06:40:17.527Z,4.33
2019-05-19T06:42:45.724Z,4.40
2019-05-19T06:45:15.654Z,4.42
2019-05-19T06:47:43.816Z,4.55
2019-05-19T06:50:12.248Z,4.00
2019-05-19T06:52:40.524Z,4.37
2019-05-19T06:55:08.870Z,4.55
2019-05-19T06:57:37.059Z,4.35
2019-05-19T07:00:06.422Z,4.47
2019-05-19T07:02:34.695Z,4.25
2019-05-19T07:05:03.043Z,4.10
2019-05-19T07:07:31.146Z,4.15
2019-05-19T07:09:59.259Z,4.05
2019-05-19T07:12:27.409Z,3.85
2019-05-19T07:14:55.549Z,4.40
2019-05-19T07:17:23.756Z,3.05
2019-05-19T07:19:51.994Z,4.33
2019-05-19T07:22:20.135Z,4.00
2019-05-19T07:24:48.294Z,4.30
2019-05-19T07:27:16.437Z,4.17
2019-05-19T07:29:44.647Z,3.65
2019-05-19T07:32:12.830Z,3.55
2019-05-19T07:34:40.977Z,3.40
2019-05-19T07:37:09.078Z,3.25
2019-05-19T07:39:37.284Z,3.90
2019-05-19T07:42:05.462Z,3.75
2019-05-19T07:44:33.596Z,3.70
2019-05-19T07:47:01.730Z,3.60
2019-05-19T07:49:29.945Z,3.95
2019-05-19T07:51:58.094Z,3.22
2019-05-19T07:54:26.300Z,3.25
2019-05-19T07:56:54.438Z,3.40
2019-05-19T07:59:22.584Z,3.33
2019-05-19T08:01:50.811Z,3.72
2019-05-19T08:04:19.067Z,3.92
2019-05-19T08:06:47.256Z,3.52
2019-05-19T08:09:15.546Z,3.95
2019-05-19T08:11:43.706Z,3.50
2019-05-19T08:14:11.934Z,3.47
2019-05-19T08:16:40.166Z,3.87
2019-05-19T08:19:08.326Z,3.55
2019-05-19T08:21:36.491Z,3.45
2019-05-19T08:24:04.783Z,3.30
2019-05-19T08:26:33.024Z,1.80
2019-05-19T08:29:01.192Z,3.08
2019-05-19T08:31:29.394Z,2.98
2019-05-19T08:33:57.799Z,3.12
2019-05-19T08:36:26.081Z,2.98
2019-05-19T08:38:54.271Z,3.37
2019-05-19T08:41:22.418Z,3.85
2019-05-19T08:43:53.264Z,3.87
2019-05-19T08:46:20.630Z,3.52
2019-05-19T08:48:48.785Z,4.10
2019-05-19T08:51:16.965Z,4.55
2019-05-19T08:53:45.076Z,4.65
2019-05-19T08:56:13.232Z,4.50
2019-05-19T08:58:41.389Z,5.95
2019-05-19T09:01:09.553Z,5.17
2019-05-19T09:03:37.859Z,5.00
2019-05-19T09:06:06.020Z,5.60
2019-05-19T09:08:34.217Z,5.58
2019-05-19T09:11:02.367Z,5.17
2019-05-19T09:13:30.798Z,5.20
2019-05-19T09:15:58.999Z,5.70
2019-05-19T09:18:27.223Z,4.92
2019-05-19T09:20:55.604Z,5.28
2019-05-19T09:23:23.829Z,5.30
2019-05-19T09:25:52.091Z,5.40
2019-05-19T09:28:20.216Z,4.60
2019-05-19T09:30:48.383Z,5.05
2019-05-19T09:33:16.646Z,5.33
2019-05-19T09:35:44.857Z,4.87
2019-05-19T09:38:13.072Z,4.72
2019-05-19T09:40:41.280Z,5.65
2019-05-19T09:43:09.422Z,4.80
2019-05-19T09:45:37.552Z,4.90
2019-05-19T09:48:05.699Z,4.75
2019-05-19T09:50:33.883Z,4.00
2019-05-19T09:53:02.208Z,5.17
2019-05-19T09:55:30.428Z,5.17
2019-05-19T09:57:58.587Z,4.95
2019-05-19T10:00:26.705Z,5.37
2019-05-19T10:02:54.952Z,4.95
2019-05-19T10:05:23.132Z,5.15
2019-05-19T10:07:51.346Z,4.92
2019-05-19T10:10:42.678Z,4.80
2019-05-19T10:13:10.868Z,5.10
2019-05-19T10:15:39.104Z,5.08
2019-05-19T10:18:07.655Z,5.47
2019-05-19T10:20:35.851Z,4.55
2019-05-19T10:23:04.034Z,4.65
2019-05-19T10:25:32.172Z,5.47
2019-05-19T10:28:00.400Z,4.20
2019-05-19T10:30:28.598Z,4.87
2019-05-19T10:32:58.888Z,4.67
2019-05-19T10:35:27.230Z,4.83
2019-05-19T10:37:55.474Z,4.33
2019-05-19T10:40:23.729Z,4.10
2019-05-19T10:42:51.900Z,4.30
2019-05-19T10:45:20.043Z,4.30
2019-05-19T10:47:48.171Z,4.72
2019-05-19T10:50:16.362Z,4.60
2019-05-19T10:52:44.623Z,3.98
2019-05-19T10:55:13.035Z,4.50
2019-05-19T10:57:41.254Z,4.20
2019-05-19T11:00:09.747Z,4.75
2019-05-19T11:02:37.896Z,3.83
2019-05-19T11:05:06.812Z,4.20
2019-05-19T11:07:34.994Z,4.72
2019-05-19T11:10:03.102Z,4.87
2019-05-19T11:12:31.316Z,4.92
2019-05-19T11:14:59.526Z,4.40
2019-05-19T11:17:27.798Z,4.33
2019-05-19T11:19:56.023Z,4.80
2019-05-19T11:22:24.258Z,4.78
2019-05-19T11:24:52.423Z,4.53
2019-05-19T11:27:20.706Z,3.87
2019-05-19T11:29:48.941Z,4.12
2019-05-19T11:32:17.142Z,4.22
2019-05-19T11:34:45.266Z,4.40
2019-05-19T11:37:13.410Z,4.92
2019-05-19T11:39:41.644Z,4.37
2019-05-19T11:42:09.836Z,4.37
2019-05-19T11:44:38.064Z,4.22
2019-05-19T11:47:06.209Z,4.00
2019-05-19T11:49:34.482Z,4.08
2019-05-19T11:52:02.726Z,3.97
2019-05-19T11:54:30.893Z,4.53
2019-05-19T11:56:59.109Z,3.87
2019-05-19T11:59:27.339Z,3.70
2019-05-19T12:01:56.034Z,4.03
2019-05-19T12:04:24.296Z,3.77
2019-05-19T12:06:52.493Z,3.60
2019-05-19T12:09:20.754Z,3.33
2019-05-19T12:11:48.967Z,3.07
2019-05-19T12:14:17.319Z,3.67
2019-05-19T12:16:45.548Z,3.40
2019-05-19T12:19:13.912Z,2.97
2019-05-19T12:21:42.088Z,3.42
2019-05-19T12:24:10.332Z,3.83
2019-05-19T12:26:38.516Z,3.67
2019-05-19T12:29:06.687Z,3.43
2019-05-19T12:31:34.854Z,3.23
2019-05-19T12:34:03.033Z,3.40
2019-05-19T12:36:31.344Z,3.00
2019-05-19T12:38:59.579Z,3.25
2019-05-19T12:41:27.854Z,2.67
2019-05-19T12:43:56.108Z,3.17
2019-05-19T12:46:24.318Z,3.57
2019-05-19T12:48:52.595Z,3.03
2019-05-19T12:51:20.807Z,3.17
2019-05-19T12:53:49.019Z,3.60
2019-05-19T12:56:17.223Z,3.80
2019-05-19T12:58:45.495Z,3.45
2019-05-19T13:01:13.685Z,3.15
2019-05-19T13:03:41.933Z,2.67
2019-05-19T13:06:10.257Z,2.85
2019-05-19T13:08:38.379Z,3.22
2019-05-19T13:11:06.586Z,3.52
2019-05-19T13:13:34.817Z,3.02
2019-05-19T13:16:03.145Z,3.08
2019-05-19T13:18:31.315Z,3.33
2019-05-19T13:20:59.615Z,3.47
2019-05-19T13:23:27.923Z,2.95
2019-05-19T13:25:56.137Z,3.50
2019-05-19T13:28:24.358Z,3.12
2019-05-19T13:30:52.508Z,2.77
2019-05-19T13:33:20.763Z,2.83
2019-05-19T13:35:48.935Z,2.98
2019-05-19T13:38:17.155Z,2.73
2019-05-19T13:40:45.358Z,3.17
2019-05-19T13:43:13.534Z,3.47
2019-05-19T13:45:41.734Z,3.08
2019-05-19T13:48:09.868Z,2.80
2019-05-19T13:50:38.052Z,2.77
2019-05-19T13:53:06.270Z,3.15
2019-05-19T13:55:34.447Z,3.37
2019-05-19T13:58:03.613Z,3.02
2019-05-19T14:00:31.860Z,4.05
2019-05-19T14:03:00.094Z,3.25
2019-05-19T14:05:28.337Z,2.80
2019-05-19T14:07:56.741Z,2.98
2019-05-19T14:10:24.963Z,3.70
2019-05-19T14:12:53.181Z,2.52
2019-05-19T14:15:21.453Z,3.12
2019-05-19T14:17:49.609Z,3.92
2019-05-19T14:20:18.046Z,2.98
2019-05-19T14:22:46.263Z,2.87
2019-05-19T14:25:15.896Z,3.35
2019-05-19T14:27:44.068Z,3.37
2019-05-19T14:30:12.910Z,3.42
2019-05-19T14:32:41.233Z,3.72
2019-05-19T14:35:09.565Z,3.33
2019-05-19T14:37:37.832Z,3.60
2019-05-19T14:40:07.645Z,3.65
2019-05-19T14:42:50.052Z,3.60
2019-05-19T14:45:19.412Z,3.87
2019-05-19T14:47:47.562Z,3.72
2019-05-19T14:50:16.458Z,3.70
2019-05-19T14:52:44.614Z,3.67
2019-05-19T14:55:13.425Z,3.67
2019-05-19T14:57:45.314Z,4.20
2019-05-19T15:00:12.129Z,3.75
2019-05-19T15:05:07.575Z,4.28
2019-05-19T15:07:35.788Z,3.85
2019-05-19T15:10:03.977Z,4.05
2019-05-19T15:12:32.221Z,4.25
2019-05-19T15:15:00.559Z,4.55
2019-05-19T15:17:28.748Z,3.90
2019-05-19T15:19:57.031Z,4.05
2019-05-19T15:22:25.200Z,4.62
2019-05-19T15:24:53.417Z,5.12
2019-05-19T15:27:21.709Z,4.50
2019-05-19T15:29:49.886Z,4.35
2019-05-19T15:32:18.099Z,4.37
2019-05-19T15:34:46.339Z,4.08
2019-05-19T15:37:14.543Z,4.58
2019-05-19T15:39:42.734Z,4.10
2019-05-19T15:42:10.964Z,4.62
2019-05-19T15:44:39.190Z,4.25
2019-05-19T15:47:07.382Z,4.28
2019-05-19T15:49:35.522Z,4.30
2019-05-19T15:52:05.545Z,4.57
2019-05-19T15:54:33.701Z,4.08
2019-05-19T15:57:01.911Z,4.28
2019-05-19T15:59:30.092Z,4.80
2019-05-19T16:01:58.260Z,3.95
2019-05-19T16:04:26.513Z,4.10
2019-05-19T16:06:54.687Z,4.40
2019-05-19T16:09:22.900Z,4.40
2019-05-19T16:11:51.067Z,3.90
2019-05-19T16:14:19.215Z,4.63
2019-05-19T16:16:47.453Z,4.07
2019-05-19T16:19:15.664Z,4.47
2019-05-19T16:21:43.887Z,3.80
2019-05-19T16:24:12.113Z,4.37
2019-05-19T16:26:40.293Z,4.17
2019-05-19T16:29:08.480Z,4.25
2019-05-19T16:31:36.628Z,4.17
2019-05-19T16:34:04.811Z,3.97
2019-05-19T16:36:33.016Z,4.00
2019-05-19T16:39:01.202Z,4.17
2019-05-19T16:41:29.411Z,4.17
2019-05-19T16:43:57.739Z,4.53
2019-05-19T16:46:26.076Z,4.08
2019-05-19T16:48:54.300Z,4.17
2019-05-19T16:51:22.517Z,4.15
2019-05-19T16:53:52.842Z,4.30
2019-05-19T16:56:21.054Z,3.52
2019-05-19T16:58:49.335Z,4.27
2019-05-19T17:01:19.992Z,4.50
2019-05-19T17:03:47.427Z,3.77
2019-05-19T17:06:15.769Z,3.63
2019-05-19T17:08:43.985Z,3.37
2019-05-19T17:11:18.413Z,4.97
2019-05-19T17:13:42.238Z,4.10
2019-05-19T17:16:10.477Z,4.27
2019-05-19T17:18:38.680Z,4.13
2019-05-19T17:21:06.913Z,4.27
2019-05-19T17:23:35.165Z,4.20
2019-05-19T17:26:03.410Z,4.33
2019-05-19T17:28:31.608Z,4.30
2019-05-19T17:30:59.972Z,3.95
2019-05-19T17:33:28.276Z,4.33
2019-05-19T17:35:56.560Z,4.30
2019-05-19T17:38:24.755Z,4.12
2019-05-19T17:40:52.974Z,4.17
2019-05-19T17:43:21.196Z,4.40
2019-05-19T17:45:49.362Z,4.10
2019-05-19T17:48:26.101Z,4.10
2019-05-19T17:50:47.456Z,4.55
2019-05-19T17:53:15.678Z,3.95
2019-05-19T17:55:45.050Z,4.53
2019-05-19T18:00:42.004Z,4.15
2019-05-19T18:03:10.614Z,4.55
2019-05-19T18:05:39.179Z,4.87
2019-05-19T18:08:07.409Z,4.83
2019-05-19T18:10:35.644Z,4.90
2019-05-19T18:13:03.857Z,4.35
2019-05-19T18:15:32.612Z,4.78
2019-05-19T18:18:00.730Z,5.17
2019-05-19T18:20:28.933Z,5.58
2019-05-19T18:22:57.595Z,5.72
2019-05-19T18:25:25.792Z,5.37
2019-05-19T18:27:53.999Z,5.75
2019-05-19T18:30:22.254Z,5.00
2019-05-19T18:32:50.428Z,5.25
2019-05-19T18:35:18.580Z,4.58
2019-05-19T18:37:46.846Z,4.42
2019-05-19T18:40:15.016Z,4.78
2019-05-19T18:42:43.195Z,4.30
2019-05-19T18:45:11.325Z,4.42
2019-05-19T18:47:39.885Z,3.67
2019-05-19T18:50:08.255Z,3.92
2019-05-19T18:52:36.533Z,4.05
2019-05-19T18:55:05.073Z,3.87
2019-05-19T18:57:33.274Z,4.28
2019-05-19T19:00:01.593Z,3.52
2019-05-19T19:02:29.846Z,4.12
2019-05-19T19:04:57.999Z,4.20
2019-05-19T19:07:45.120Z,4.03
2019-05-19T19:10:13.303Z,3.60
2019-05-19T19:12:41.500Z,3.87
2019-05-19T19:15:09.679Z,3.65
2019-05-19T19:17:39.163Z,3.27
2019-05-19T19:20:07.436Z,4.25
2019-05-19T19:22:35.606Z,4.08
2019-05-19T19:25:03.853Z,4.15
2019-05-19T19:27:32.149Z,3.30
2019-05-19T19:30:03.364Z,3.72
2019-05-19T19:32:30.193Z,3.62
2019-05-19T19:34:58.343Z,3.52
2019-05-19T19:37:26.543Z,3.50
2019-05-19T19:39:54.716Z,3.20
2019-05-19T19:42:23.217Z,3.65
2019-05-19T19:44:51.390Z,3.33
2019-05-19T19:47:19.595Z,3.08
2019-05-19T19:49:47.748Z,3.00
2019-05-19T19:52:15.953Z,2.92
2019-05-19T19:54:44.079Z,2.87
2019-05-19T19:57:12.259Z,2.50
2019-05-19T19:59:40.436Z,2.60
2019-05-19T20:02:08.573Z,2.62
2019-05-19T20:04:36.833Z,4.00
2019-05-19T20:07:04.985Z,3.72
2019-05-19T20:09:33.491Z,3.15
2019-05-19T20:12:01.611Z,3.77
2019-05-19T20:14:29.809Z,3.80
2019-05-19T20:16:58.041Z,2.77
2019-05-19T20:19:26.436Z,3.20
2019-05-19T20:21:54.753Z,3.40
2019-05-19T20:24:22.945Z,4.08
2019-05-19T20:26:51.087Z,3.60
2019-05-19T20:29:19.173Z,4.08
2019-05-19T20:31:47.283Z,3.55
2019-05-19T20:34:15.524Z,3.42
2019-05-19T20:36:43.646Z,3.77
2019-05-19T20:39:11.777Z,3.52
2019-05-19T20:41:39.973Z,3.20
2019-05-19T20:44:08.085Z,3.47
2019-05-19T20:46:36.243Z,2.83
2019-05-19T20:49:04.342Z,3.62
2019-05-19T20:51:34.092Z,3.80
2019-05-19T20:54:02.339Z,4.22
2019-05-19T20:56:30.625Z,3.62
2019-05-19T20:58:58.819Z,3.30
2019-05-19T21:01:27.026Z,4.05
2019-05-19T21:03:55.270Z,3.95
2019-05-19T21:06:23.439Z,3.40
2019-05-19T21:08:51.679Z,3.42
2019-05-19T21:11:19.847Z,4.03
2019-05-19T21:13:48.166Z,3.58
2019-05-19T21:16:16.355Z,3.85
2019-05-19T21:18:44.582Z,3.42
2019-05-19T21:21:12.798Z,3.67
2019-05-19T21:23:41.052Z,3.70
2019-05-19T21:26:09.227Z,4.28
2019-05-19T21:28:37.434Z,3.40
2019-05-19T21:31:06.417Z,3.92
2019-05-19T21:33:34.675Z,4.00
2019-05-19T21:36:02.883Z,4.20
2019-05-19T21:38:31.036Z,4.08
2019-05-19T21:40:59.321Z,3.35
2019-05-19T21:43:27.562Z,3.20
2019-05-19T21:45:55.705Z,3.58
2019-05-19T21:48:34.212Z,2.95
2019-05-19T21:51:02.526Z,2.85
2019-05-19T21:53:30.729Z,3.47
2019-05-19T21:55:59.700Z,3.02
2019-05-19T21:58:27.816Z,3.90
2019-05-19T22:00:55.935Z,3.50
2019-05-19T22:03:24.064Z,3.50
2019-05-19T22:05:53.671Z,2.67
2019-05-19T22:08:22.533Z,2.75
2019-05-19T22:10:50.723Z,2.75
2019-05-19T22:13:19.151Z,2.75
2019-05-19T22:15:47.360Z,2.37
2019-05-19T22:18:15.726Z,2.45
2019-05-19T22:20:43.894Z,2.62
2019-05-19T22:23:12.097Z,2.87
2019-05-19T22:25:40.327Z,2.47
2019-05-19T22:28:08.526Z,2.95
2019-05-19T22:30:36.652Z,2.70
2019-05-19T22:33:04.994Z,2.62
2019-05-19T22:35:33.086Z,2.70
2019-05-19T22:38:01.196Z,2.40
2019-05-19T22:40:29.460Z,2.52
2019-05-19T22:42:57.579Z,1.98
2019-05-19T22:45:25.845Z,2.45
2019-05-19T22:47:53.979Z,2.17
2019-05-19T22:50:22.194Z,2.60
2019-05-19T22:52:50.333Z,2.85
2019-05-19T22:55:18.742Z,3.02
2019-05-19T22:57:46.893Z,2.47
2019-05-19T23:00:16.345Z,2.60
2019-05-19T23:02:44.581Z,2.80
2019-05-19T23:05:12.938Z,2.58
2019-05-19T23:07:41.040Z,2.33
2019-05-19T23:10:09.515Z,2.67
2019-05-19T23:12:37.639Z,2.33
2019-05-19T23:15:06.897Z,3.30
2019-05-19T23:17:35.074Z,3.07
2019-05-19T23:20:03.248Z,2.40
2019-05-19T23:22:31.325Z,3.35
2019-05-19T23:24:59.503Z,3.42
2019-05-19T23:27:27.671Z,3.20
2019-05-19T23:29:55.936Z,2.92
2019-05-19T23:32:24.246Z,2.65
2019-05-19T23:34:52.372Z,3.10
2019-05-19T23:37:20.558Z,3.00
2019-05-19T23:39:48.776Z,2.70
2019-05-19T23:42:16.887Z,2.92
2019-05-19T23:44:45.112Z,2.92
2019-05-19T23:47:13.372Z,3.02
2019-05-19T23:49:41.501Z,2.85
2019-05-19T23:52:09.707Z,2.70
2019-05-19T23:54:38.040Z,2.30
2019-05-19T23:57:06.157Z,2.52
2019-05-19T23:59:34.343Z,2.77
